Startpagina
METAR-TAF:

METAR-TAF

Vliegvelden :

Woensdrecht, Nederland

Vliegbasis Woensdrecht

breedte: 51-27N, lengte: 004-20E, hoogte: 20 m

Actueel weer

Dit bericht is 17 minuten geleden gemaakt, om 18:55 UTC
Wind 11 kt uit het westzuidwesten
Temperatuur 13°C
Vochtigheid 62%
Druk 1016 hPa
Zicht 10 km of meer
Geheel bewolkt op 24000 ft

METAR: EHWO 231855Z AUTO 24011KT 9999 OVC240 13/06 Q1016 BLU

Tijdstip: 21:12 (19:12 UTC)

Verwachting

Dit bericht is 10 uur en het 54 minuten geleden gemaakt, om 08:18 UTC
Verwachting geldig van 23 om 09 UTC tot 23 om 21 UTC
Wind 12 kt uit het westzuidwesten
Zicht 10 km of meer
Verspreide wolken op 1500 ft
Wijzigt naar
van 23 om 09 UTC tot 23 om 11 UTC
Wind 12 kt uit het westen met uitschieters tot 22 kt
Verspreide wolken op 2200 ft

TAF: EHWO 230818Z 2309/2321 25012KT 9999 SCT015 BECMG 2309/2311 27012G22KT SCT022

Waarnemingen en weersverwachtingen van meer dan 4000 vliegvelden (METAR en TAF).

De beschikbare stations zijn de gele en rode punten op de kaart.

Ga met uw muis naar het station om de naam te zien.

Klik dan om waarnemingen en weersverwachtingen te zien.

kaart wijzigen: klik op de groene knoppen met een zwart kruis om in te zoomen, op de groene knop met een streepje om uit te zoomen of op de groene pijlen voor aangrenzende kaarten.


METAR-TAF: